Grand Princess — ZCBU5 — position and weather

sailwx.info

Track history (hours):
 
Tides and Currents Weather Stations Pressure Air Temp Water Temp Dewpoint Dewpoint Depression Visibility Wind Speed Wind Dir Waves Ship Positions

Grand Princess

Operator: Princess Cruises

Last reported at 2015-Mar-23 11:06 UTC. Time now 2015-Mar-29 12:32 UTC.
Position N 48°02' W 125°58'.

Length 289.5 m; beam 36 m; draft 8.5 m.

Type: Ship. MMSI: 310327000.

Date/timePositionNaut miles runAvg speedWind from/ knotsBaromVisibWave heightAir tempDewpointWater temp
2015-Mar-23 11:06N 48°02' W 125°58'1017.7
2015-Mar-23 10:33N 48°09' W 125°49'1817.9
2015-Mar-23 09:33N 48°22' W 125°30'1918.6
2015-Mar-23 08:33N 48°31' W 125°06'1918.6
2015-Mar-23 07:33N 48°29' W 124°38'1919.4
2015-Mar-23 06:33N 48°22' W 124°11'1919.4
2015-Mar-23 05:33N 48°16' W 123°43'1615.8
2015-Mar-23 04:33N 48°23' W 123°21'1413.6
2015-Mar-23 03:33N 48°36' W 123°14'1414.5
2015-Mar-23 02:33N 48°47' W 123°01'1616.4
2015-Mar-23 01:33N 48°60' W 123°17'1616.2
2015-Mar-23 00:33N 49°16' W 123°21'10 9.6
2015-Mar-22 23:33N 49°17' W 123°06'0 0.0
2015-Mar-22 22:34N 49°17' W 123°06'0 0.0
2015-Mar-22 21:33N 49°17' W 123°06'0 0.0
2015-Mar-22 20:33N 49°17' W 123°06'0 0.0
2015-Mar-22 19:32N 49°17' W 123°06'0 0.0
2015-Mar-22 18:32N 49°17' W 123°06'0 0.0
2015-Mar-22 17:31N 49°17' W 123°06'0 0.0
2015-Mar-22 16:31N 49°17' W 123°06'0 0.0
2015-Mar-22 14:31N 49°17' W 123°06'0 0.4
2015-Mar-22 13:34N 49°18' W 123°06'9 8.8
2015-Mar-22 12:33N 49°15' W 123°19'1514.7
2015-Mar-22 11:33N 49°00' W 123°16'1717.0
2015-Mar-22 10:33N 48°47' W 123°01'1212.0
2015-Mar-22 09:33N 48°39' W 123°15'1616.0
2015-Mar-22 08:33N 48°23' W 123°14'1010.3
2015-Mar-22 07:33N 48°16' W 123°26'1312.6
2015-Mar-22 06:33N 48°13' W 123°44'1615.9
2015-Mar-22 05:33N 48°17' W 124°07'1817.7
2015-Mar-22 04:33N 48°25' W 124°32'1918.7
2015-Mar-22 03:33N 48°28' W 124°59'2019.6
2015-Mar-22 02:33N 48°10' W 125°10'55121.1
2015-Mar-21 00:23N 39°00' W 124°11'1821.5
2015-Mar-20 23:33N 38°44' W 124°03'2221.6
2015-Mar-20 22:33N 38°24' W 123°53'2121.1
2015-Mar-20 21:33N 38°04' W 123°43'2120.8
2015-Mar-20 20:34N 37°45' W 123°33'2121.4
2015-Mar-20 19:34N 37°25' W 123°21'2121.4
2015-Mar-20 18:34N 37°06' W 123°09'2121.2
2015-Mar-20 17:34N 36°47' W 122°57'2121.3
2015-Mar-20 16:34N 36°28' W 122°46'2121.2
2015-Mar-20 15:34N 36°10' W 122°32'2020.0
2015-Mar-20 14:33N 35°55' W 122°16'2019.5
2015-Mar-20 13:33N 35°39' W 122°02'2019.5
2015-Mar-20 12:33N 35°24' W 121°47'1919.5
2015-Mar-20 11:33N 35°08' W 121°32'2019.5
2015-Mar-20 10:33N 34°53' W 121°18'2019.6
2015-Mar-20 09:33N 34°38' W 121°03'2218.9
2015-Mar-20 08:23N 34°24' W 120°42'4019.9
2015-Mar-20 06:23N 34°13' W 119°55'1619.6
2015-Mar-20 05:33N 34°09' W 119°37'2119.9
2015-Mar-20 04:31N 34°03' W 119°13'1919.7
2015-Mar-20 03:33N 33°53' W 118°53'3216.1
2015-Mar-20 01:32N 33°38' W 118°18'6 6.2
2015-Mar-20 00:33N 33°44' W 118°17'1 0.6
2015-Mar-19 23:28N 33°45' W 118°17'0 0.0
2015-Mar-19 22:33N 33°45' W 118°17'0 0.0
2015-Mar-19 21:33N 33°45' W 118°17'0 0.0
2015-Mar-19 20:33N 33°45' W 118°17'0 0.0
2015-Mar-19 19:32N 33°45' W 118°17'0 0.0
2015-Mar-19 18:29N 33°45' W 118°17'0 0.0
2015-Mar-19 17:29N 33°45' W 118°17'0 0.0
2015-Mar-19 16:28N 33°45' W 118°17'0 0.0
2015-Mar-19 15:28N 33°45' W 118°17'0 0.0
2015-Mar-19 14:33N 33°45' W 118°17'0 0.0
2015-Mar-19 13:33N 33°45' W 118°17'0 0.0
2015-Mar-19 12:32N 33°45' W 118°17'5 5.0
2015-Mar-19 11:27N 33°40' W 118°13'1111.0
2015-Mar-19 10:29N 33°31' W 118°08'1412.9
2015-Mar-19 09:22N 33°17' W 118°02'911.6
2015-Mar-19 08:33N 33°09' W 117°57'1212.3
2015-Mar-19 07:33N 32°57' W 117°51'1212.2
2015-Mar-19 06:33N 32°46' W 117°46'1212.4
2015-Mar-19 05:33N 32°35' W 117°40'1714.1
2015-Mar-19 04:22N 32°19' W 117°32'46 2.8
2015-Mar-18 12:06N 31°41' W 117°04'7316.0
2015-Mar-18 07:32N 31°12' W 118°22'5115.9
2015-Mar-18 04:21N 30°56' W 119°19'1416.2
2015-Mar-18 03:29N 30°52' W 119°34'1916.1
2015-Mar-18 02:20N 30°47' W 119°55'1216.1
2015-Mar-18 01:34N 30°43' W 120°09'1616.1
2015-Mar-18 00:33N 30°39' W 120°27'24016.8
2015-Mar-17 10:17N 29°31' W 124°53'1318.6
2015-Mar-17 09:33N 29°27' W 125°08'  
Track history (hours):
 
Tides and Currents Weather Stations Pressure Air Temp Water Temp Dewpoint Dewpoint Depression Visibility Wind Speed Wind Dir Waves Ship Positions

Grand Princess

Operator: Princess Cruises

Last reported at 2015-Mar-23 11:06 UTC. Time now 2015-Mar-29 12:32 UTC.
Position N 48°02' W 125°58'.

Length 289.5 m; beam 36 m; draft 8.5 m.

Type: Ship. MMSI: 310327000.

Date/timePositionNaut miles runAvg speedWind from/ knotsBaromVisibWave heightAir tempDewpointWater temp
2015-Mar-23 11:06N 48°02' W 125°58'1017.7
2015-Mar-23 10:33N 48°09' W 125°49'1817.9
2015-Mar-23 09:33N 48°22' W 125°30'1918.6
2015-Mar-23 08:33N 48°31' W 125°06'1918.6
2015-Mar-23 07:33N 48°29' W 124°38'1919.4
2015-Mar-23 06:33N 48°22' W 124°11'1919.4
2015-Mar-23 05:33N 48°16' W 123°43'1615.8
2015-Mar-23 04:33N 48°23' W 123°21'1413.6
2015-Mar-23 03:33N 48°36' W 123°14'1414.5
2015-Mar-23 02:33N 48°47' W 123°01'1616.4
2015-Mar-23 01:33N 48°60' W 123°17'1616.2
2015-Mar-23 00:33N 49°16' W 123°21'10 9.6
2015-Mar-22 23:33N 49°17' W 123°06'0 0.0
2015-Mar-22 22:34N 49°17' W 123°06'0 0.0
2015-Mar-22 21:33N 49°17' W 123°06'0 0.0
2015-Mar-22 20:33N 49°17' W 123°06'0 0.0
2015-Mar-22 19:32N 49°17' W 123°06'0 0.0
2015-Mar-22 18:32N 49°17' W 123°06'0 0.0
2015-Mar-22 17:31N 49°17' W 123°06'0 0.0
2015-Mar-22 16:31N 49°17' W 123°06'0 0.0
2015-Mar-22 14:31N 49°17' W 123°06'0 0.4
2015-Mar-22 13:34N 49°18' W 123°06'9 8.8
2015-Mar-22 12:33N 49°15' W 123°19'1514.7
2015-Mar-22 11:33N 49°00' W 123°16'1717.0
2015-Mar-22 10:33N 48°47' W 123°01'1212.0
2015-Mar-22 09:33N 48°39' W 123°15'1616.0
2015-Mar-22 08:33N 48°23' W 123°14'1010.3
2015-Mar-22 07:33N 48°16' W 123°26'1312.6
2015-Mar-22 06:33N 48°13' W 123°44'1615.9
2015-Mar-22 05:33N 48°17' W 124°07'1817.7
2015-Mar-22 04:33N 48°25' W 124°32'1918.7
2015-Mar-22 03:33N 48°28' W 124°59'2019.6
2015-Mar-22 02:33N 48°10' W 125°10'55121.1
2015-Mar-21 00:23N 39°00' W 124°11'1821.5
2015-Mar-20 23:33N 38°44' W 124°03'2221.6
2015-Mar-20 22:33N 38°24' W 123°53'2121.1
2015-Mar-20 21:33N 38°04' W 123°43'2120.8
2015-Mar-20 20:34N 37°45' W 123°33'2121.4
2015-Mar-20 19:34N 37°25' W 123°21'2121.4
2015-Mar-20 18:34N 37°06' W 123°09'2121.2
2015-Mar-20 17:34N 36°47' W 122°57'2121.3
2015-Mar-20 16:34N 36°28' W 122°46'2121.2
2015-Mar-20 15:34N 36°10' W 122°32'2020.0
2015-Mar-20 14:33N 35°55' W 122°16'2019.5
2015-Mar-20 13:33N 35°39' W 122°02'2019.5
2015-Mar-20 12:33N 35°24' W 121°47'1919.5
2015-Mar-20 11:33N 35°08' W 121°32'2019.5
2015-Mar-20 10:33N 34°53' W 121°18'2019.6
2015-Mar-20 09:33N 34°38' W 121°03'2218.9
2015-Mar-20 08:23N 34°24' W 120°42'4019.9
2015-Mar-20 06:23N 34°13' W 119°55'1619.6
2015-Mar-20 05:33N 34°09' W 119°37'2119.9
2015-Mar-20 04:31N 34°03' W 119°13'1919.7
2015-Mar-20 03:33N 33°53' W 118°53'3216.1
2015-Mar-20 01:32N 33°38' W 118°18'6 6.2
2015-Mar-20 00:33N 33°44' W 118°17'1 0.6
2015-Mar-19 23:28N 33°45' W 118°17'0 0.0
2015-Mar-19 22:33N 33°45' W 118°17'0 0.0
2015-Mar-19 21:33N 33°45' W 118°17'0 0.0
2015-Mar-19 20:33N 33°45' W 118°17'0 0.0
2015-Mar-19 19:32N 33°45' W 118°17'0 0.0
2015-Mar-19 18:29N 33°45' W 118°17'0 0.0
2015-Mar-19 17:29N 33°45' W 118°17'0 0.0
2015-Mar-19 16:28N 33°45' W 118°17'0 0.0
2015-Mar-19 15:28N 33°45' W 118°17'0 0.0
2015-Mar-19 14:33N 33°45' W 118°17'0 0.0
2015-Mar-19 13:33N 33°45' W 118°17'0 0.0
2015-Mar-19 12:32N 33°45' W 118°17'5 5.0
2015-Mar-19 11:27N 33°40' W 118°13'1111.0
2015-Mar-19 10:29N 33°31' W 118°08'1412.9
2015-Mar-19 09:22N 33°17' W 118°02'911.6
2015-Mar-19 08:33N 33°09' W 117°57'1212.3
2015-Mar-19 07:33N 32°57' W 117°51'1212.2
2015-Mar-19 06:33N 32°46' W 117°46'1212.4
2015-Mar-19 05:33N 32°35' W 117°40'1714.1
2015-Mar-19 04:22N 32°19' W 117°32'46 2.8
2015-Mar-18 12:06N 31°41' W 117°04'7316.0
2015-Mar-18 07:32N 31°12' W 118°22'5115.9
2015-Mar-18 04:21N 30°56' W 119°19'1416.2
2015-Mar-18 03:29N 30°52' W 119°34'1916.1
2015-Mar-18 02:20N 30°47' W 119°55'1216.1
2015-Mar-18 01:34N 30°43' W 120°09'1616.1
2015-Mar-18 00:33N 30°39' W 120°27'24016.8
2015-Mar-17 10:17N 29°31' W 124°53'1318.6
2015-Mar-17 09:33N 29°27' W 125°08'  

Dump ship's entire track history